createdAt,value
2023-05-17T00:00:06.996Z,101261.38
2023-05-17T00:02:35.760Z,101263.16
2023-05-17T00:05:05.066Z,101263.13
2023-05-17T00:07:33.681Z,101265.72
2023-05-17T00:10:02.197Z,101273.56
2023-05-17T00:12:30.879Z,101269.16
2023-05-17T00:15:00.779Z,101281.34
2023-05-17T00:17:30.426Z,101274.31
2023-05-17T00:19:59.023Z,101267.25
2023-05-17T00:22:27.808Z,101264.59
2023-05-17T00:24:56.391Z,101266.34
2023-05-17T00:27:25.113Z,101265.44
2023-05-17T00:29:53.623Z,101272.44
2023-05-17T00:32:23.583Z,101270.66
2023-05-17T00:34:52.320Z,101279.44
2023-05-17T00:37:20.889Z,101268.97
2023-05-17T00:39:49.540Z,101268.97
2023-05-17T00:42:18.083Z,101272.47
2023-05-17T00:44:46.634Z,101267.22
2023-05-17T00:47:15.247Z,101272.47
2023-05-17T00:49:46.153Z,101279.47
2023-05-17T00:52:14.869Z,101278.66
2023-05-17T00:54:43.579Z,101285.63
2023-05-17T00:57:12.271Z,101281.34
2023-05-17T00:59:41.609Z,101282.22
2023-05-17T01:02:10.655Z,101276.22
2023-05-17T01:04:39.606Z,101280.66
2023-05-17T01:07:10.422Z,101288.56
2023-05-17T01:09:39.841Z,101287.75
2023-05-17T01:12:22.975Z,101283.41
2023-05-17T01:14:59.384Z,101285.19
2023-05-17T01:17:40.902Z,101286.97
2023-05-17T01:20:19.339Z,101295.69
2023-05-17T01:23:04.918Z,101296.69
2023-05-17T01:25:55.629Z,101296.72
2023-05-17T01:28:28.215Z,101301.19
2023-05-17T01:30:59.676Z,101309.09
2023-05-17T01:33:28.661Z,101315.28
2023-05-17T01:35:57.131Z,101316.22
2023-05-17T01:38:25.415Z,101313.66
2023-05-17T01:41:02.846Z,101310.19
2023-05-17T01:43:42.672Z,101311.13
2023-05-17T01:46:17.279Z,101313.81
2023-05-17T01:48:54.005Z,101315.63
2023-05-17T01:51:27.576Z,101314.81
2023-05-17T01:54:02.705Z,101327.97
2023-05-17T01:56:36.026Z,101319.31
2023-05-17T01:59:08.721Z,101322.84
2023-05-17T02:01:39.977Z,101326.38
2023-05-17T02:04:08.345Z,101328.19
2023-05-17T02:06:37.016Z,101323.00
2023-05-17T02:09:05.702Z,101331.72
2023-05-17T02:11:34.433Z,101331.78
2023-05-17T02:14:03.418Z,101332.69
2023-05-17T02:16:33.418Z,101337.09
2023-05-17T02:19:02.047Z,101331.00
2023-05-17T02:21:30.314Z,101340.66
2023-05-17T02:23:58.585Z,101340.66
2023-05-17T02:26:27.830Z,101339.84
2023-05-17T02:28:57.670Z,101339.81
2023-05-17T02:31:26.836Z,101340.72
2023-05-17T02:33:56.960Z,101338.97
2023-05-17T02:36:25.567Z,101335.53
2023-05-17T02:38:54.189Z,101345.97
2023-05-17T02:41:22.753Z,101346.00
2023-05-17T02:43:52.622Z,101346.00
2023-05-17T02:46:21.496Z,101352.13
2023-05-17T02:48:50.054Z,101348.66
2023-05-17T02:51:19.694Z,101352.13
2023-05-17T02:53:48.357Z,101346.94
2023-05-17T02:56:16.959Z,101355.63
2023-05-17T02:58:45.726Z,101355.66
2023-05-17T03:01:14.328Z,101353.06
2023-05-17T03:03:43.233Z,101358.28
2023-05-17T03:06:12.345Z,101363.53
2023-05-17T03:08:42.276Z,101360.91
2023-05-17T03:11:10.855Z,101368.75
2023-05-17T03:13:39.447Z,101365.28
2023-05-17T03:16:09.583Z,101364.41
2023-05-17T03:18:38.335Z,101369.63
2023-05-17T03:21:07.018Z,101365.28
2023-05-17T03:23:35.942Z,101367.03
2023-05-17T03:26:06.497Z,101373.13
2023-05-17T03:28:42.237Z,101373.16
2023-05-17T03:31:11.130Z,101377.50
2023-05-17T03:33:39.556Z,101385.34
2023-05-17T03:36:08.595Z,101380.97
2023-05-17T03:38:37.144Z,101390.56
2023-05-17T03:41:07.337Z,101393.16
2023-05-17T03:43:36.095Z,101386.22
2023-05-17T03:46:04.723Z,101387.94
2023-05-17T03:48:35.927Z,101387.94
2023-05-17T03:51:05.930Z,101393.16
2023-05-17T03:53:36.901Z,101395.78
2023-05-17T03:56:07.703Z,101388.84
2023-05-17T03:58:36.757Z,101396.66
2023-05-17T04:01:05.840Z,101394.06
2023-05-17T04:03:35.352Z,101396.66
2023-05-17T04:06:07.257Z,101394.94
2023-05-17T04:08:37.111Z,101400.16
2023-05-17T04:11:12.966Z,101399.28
2023-05-17T04:13:42.657Z,101401.00
2023-05-17T04:16:11.828Z,101402.72
2023-05-17T04:18:43.107Z,101405.34
2023-05-17T04:21:11.541Z,101413.19
2023-05-17T04:23:40.973Z,101405.31
2023-05-17T04:26:11.751Z,101414.00
2023-05-17T04:28:42.233Z,101409.66
2023-05-17T04:31:12.087Z,101412.22
2023-05-17T04:33:40.695Z,101420.94
2023-05-17T04:36:10.211Z,101418.28
2023-05-17T04:38:40.160Z,101415.66
2023-05-17T04:41:15.169Z,101417.34
2023-05-17T04:43:44.908Z,101424.34
2023-05-17T04:46:21.441Z,101422.56
2023-05-17T04:48:50.198Z,101429.53
2023-05-17T04:51:19.209Z,101430.34
2023-05-17T04:53:48.375Z,101435.56
2023-05-17T04:56:21.015Z,101446.81
2023-05-17T04:58:51.036Z,101439.78
2023-05-17T05:01:22.120Z,101444.97
2023-05-17T05:03:51.586Z,101444.91
2023-05-17T05:06:22.099Z,101446.63
2023-05-17T05:08:51.110Z,101453.56
2023-05-17T05:11:20.763Z,101446.56
2023-05-17T05:13:49.053Z,101452.69
2023-05-17T05:16:17.710Z,101451.81
2023-05-17T05:18:47.120Z,101457.09
2023-05-17T05:21:15.862Z,101468.41
2023-05-17T05:23:44.706Z,101471.91
2023-05-17T05:26:14.385Z,101478.00
2023-05-17T05:28:44.611Z,101482.34
2023-05-17T05:31:13.401Z,101481.44
2023-05-17T05:33:48.225Z,101484.03
2023-05-17T05:36:16.871Z,101487.50
2023-05-17T05:38:45.525Z,101477.88
2023-05-17T05:41:14.327Z,101484.81
2023-05-17T05:43:44.291Z,101492.59
2023-05-17T05:46:13.031Z,101492.53
2023-05-17T05:48:43.427Z,101500.31
2023-05-17T05:51:13.477Z,101496.78
2023-05-17T05:53:44.241Z,101498.47
2023-05-17T05:56:12.862Z,101494.06
2023-05-17T05:58:41.404Z,101499.25
2023-05-17T06:01:12.366Z,101493.94
2023-05-17T06:03:40.999Z,101500.00
2023-05-17T06:06:10.271Z,101503.44
2023-05-17T06:08:38.975Z,101501.63
2023-05-17T06:11:07.549Z,101504.22
2023-05-17T06:13:36.119Z,101502.41
2023-05-17T06:16:05.777Z,101509.34
2023-05-17T06:18:35.680Z,101518.03
2023-05-17T06:21:04.506Z,101521.50
2023-05-17T06:23:33.405Z,101519.72
2023-05-17T06:26:02.145Z,101524.88
2023-05-17T06:28:30.434Z,101522.19
2023-05-17T06:30:59.059Z,101525.63
2023-05-17T06:33:27.820Z,101525.59
2023-05-17T06:35:58.572Z,101529.91
2023-05-17T06:38:27.675Z,101530.69
2023-05-17T06:40:57.475Z,101537.56
2023-05-17T06:43:26.120Z,101528.72
2023-05-17T06:45:54.771Z,101539.13
2023-05-17T06:48:23.377Z,101540.84
2023-05-17T06:50:52.115Z,101542.53
2023-05-17T06:53:22.005Z,101540.72
2023-05-17T06:55:50.669Z,101540.66
2023-05-17T06:58:19.267Z,101544.06
2023-05-17T07:00:48.191Z,101541.31
2023-05-17T07:03:16.857Z,101537.66
2023-05-17T07:05:45.209Z,101545.38
2023-05-17T07:08:15.265Z,101539.97
2023-05-17T07:10:47.571Z,101552.94
2023-05-17T07:13:16.203Z,101560.66
2023-05-17T07:15:44.900Z,101555.19
2023-05-17T07:18:13.606Z,101550.53
2023-05-17T07:20:42.286Z,101551.00
2023-05-17T07:23:11.150Z,101559.25
2023-05-17T07:25:40.496Z,101547.22
2023-05-17T07:28:10.303Z,101552.25
2023-05-17T07:30:38.983Z,101548.63
2023-05-17T07:33:07.582Z,101551.19
2023-05-17T07:35:36.384Z,101549.84
2023-05-17T07:38:05.023Z,101543.63
2023-05-17T07:40:33.340Z,101543.19
2023-05-17T07:43:03.184Z,101545.63
2023-05-17T07:45:32.798Z,101533.88
2023-05-17T07:48:03.845Z,101536.59
2023-05-17T07:50:34.991Z,101528.47
2023-05-17T07:53:03.554Z,101534.25
2023-05-17T07:55:32.121Z,101532.47
2023-05-17T07:58:00.780Z,101534.28
2023-05-17T08:00:29.601Z,101538.69
2023-05-17T08:02:59.398Z,101551.13
2023-05-17T08:05:28.402Z,101548.25
2023-05-17T08:08:00.091Z,101542.78
2023-05-17T08:10:28.863Z,101542.31
2023-05-17T08:12:57.552Z,101532.38
2023-05-17T08:15:26.370Z,101544.31
2023-05-17T08:17:55.329Z,101548.72
2023-05-17T08:20:25.196Z,101534.00
2023-05-17T08:22:53.790Z,101544.09
2023-05-17T08:25:22.433Z,101541.31
2023-05-17T08:27:51.468Z,101533.31
2023-05-17T08:30:28.863Z,101536.78
2023-05-17T08:32:58.348Z,101536.25
2023-05-17T08:35:29.007Z,101539.97
2023-05-17T08:37:57.695Z,101539.97
2023-05-17T08:40:26.419Z,101537.78
2023-05-17T08:42:55.195Z,101541.34
2023-05-17T08:45:23.795Z,101531.69
2023-05-17T08:47:54.427Z,101527.84
2023-05-17T08:50:23.783Z,101523.75
2023-05-17T08:52:53.870Z,101531.88
2023-05-17T08:55:23.461Z,101523.38
2023-05-17T08:57:52.715Z,101522.97
2023-05-17T09:00:26.044Z,101523.72
2023-05-17T09:02:54.871Z,101524.97
2023-05-17T09:05:23.618Z,101531.34
2023-05-17T09:07:53.933Z,101524.50
2023-05-17T09:10:22.927Z,101524.00
2023-05-17T09:12:53.765Z,101526.66
2023-05-17T09:15:26.963Z,101526.53
2023-05-17T09:17:55.881Z,101522.00
2023-05-17T09:20:25.677Z,101527.09
2023-05-17T09:22:56.900Z,101537.16
2023-05-17T09:25:26.263Z,101529.31
2023-05-17T09:27:55.578Z,101533.91
2023-05-17T09:30:29.993Z,101540.50
2023-05-17T09:32:59.227Z,101533.78
2023-05-17T09:35:31.591Z,101533.16
2023-05-17T09:38:08.626Z,101539.44
2023-05-17T09:40:41.003Z,101539.66
2023-05-17T09:43:10.507Z,101533.84
2023-05-17T09:45:39.653Z,101534.00
2023-05-17T09:48:16.358Z,101546.94
2023-05-17T09:50:47.150Z,101538.56
2023-05-17T09:53:27.484Z,101541.50
2023-05-17T09:55:58.515Z,101543.06
2023-05-17T09:58:32.599Z,101530.47
2023-05-17T10:01:03.674Z,101541.94
2023-05-17T10:03:34.492Z,101539.00
2023-05-17T10:06:05.246Z,101530.66
2023-05-17T10:08:36.614Z,101529.63
2023-05-17T10:11:09.528Z,101513.22
2023-05-17T10:13:48.918Z,101513.81
2023-05-17T10:16:19.423Z,101515.47
2023-05-17T10:18:48.908Z,101508.16
2023-05-17T10:21:18.181Z,101497.00
2023-05-17T10:23:49.312Z,101488.94
2023-05-17T10:26:18.403Z,101497.97
2023-05-17T10:28:47.305Z,101494.03
2023-05-17T10:31:16.909Z,101489.09
2023-05-17T10:33:48.505Z,101488.59
2023-05-17T10:36:19.387Z,101497.38
2023-05-17T10:38:49.367Z,101493.41
2023-05-17T10:41:19.378Z,101499.97
2023-05-17T10:43:48.543Z,101499.38
2023-05-17T10:46:21.362Z,101493.78
2023-05-17T10:48:51.899Z,101495.09
2023-05-17T10:51:25.576Z,101494.94
2023-05-17T10:54:11.540Z,101489.41
2023-05-17T10:56:48.594Z,101488.31
2023-05-17T10:59:23.061Z,101485.50
2023-05-17T11:02:03.489Z,101487.72
2023-05-17T11:04:37.928Z,101484.78
2023-05-17T11:07:29.305Z,101479.25
2023-05-17T11:10:07.301Z,101485.16
2023-05-17T11:12:40.218Z,101481.88
2023-05-17T11:15:11.459Z,101484.94
2023-05-17T11:17:51.917Z,101487.69
2023-05-17T11:20:36.940Z,101486.59
2023-05-17T11:23:17.165Z,101487.44
2023-05-17T11:25:48.922Z,101489.34
2023-05-17T11:28:22.022Z,101492.25
2023-05-17T11:30:53.549Z,101488.25
2023-05-17T11:33:38.610Z,101489.22
2023-05-17T11:36:14.450Z,101491.09
2023-05-17T11:38:42.794Z,101486.59
2023-05-17T11:41:27.013Z,101480.41
2023-05-17T11:43:56.204Z,101472.06
2023-05-17T11:46:25.515Z,101478.25
2023-05-17T11:48:55.022Z,101475.16
2023-05-17T11:51:25.125Z,101464.56
2023-05-17T11:53:56.565Z,101474.25
2023-05-17T11:56:39.502Z,101476.28
2023-05-17T11:59:11.668Z,101479.41
2023-05-17T12:01:47.932Z,101480.69
2023-05-17T12:04:25.548Z,101473.88
2023-05-17T12:06:55.731Z,101468.59
2023-05-17T12:09:26.496Z,101462.09
2023-05-17T12:11:57.172Z,101461.31
2023-05-17T12:14:25.957Z,101451.44
2023-05-17T12:16:57.174Z,101449.56
2023-05-17T12:19:27.846Z,101446.13
2023-05-17T12:22:07.201Z,101441.75
2023-05-17T12:24:39.735Z,101444.66
2023-05-17T12:27:10.475Z,101442.16
2023-05-17T12:29:40.267Z,101432.31
2023-05-17T12:32:11.407Z,101434.03
2023-05-17T12:34:41.731Z,101427.66
2023-05-17T12:37:11.029Z,101440.91
2023-05-17T12:39:40.647Z,101435.75
2023-05-17T12:42:11.261Z,101440.34
2023-05-17T12:44:40.160Z,101429.94
2023-05-17T12:47:10.927Z,101424.38
2023-05-17T12:49:40.989Z,101423.13
2023-05-17T12:52:11.235Z,101413.22
2023-05-17T12:54:41.778Z,101421.06
2023-05-17T12:57:16.071Z,101405.69
2023-05-17T12:59:53.177Z,101406.97
2023-05-17T13:02:22.127Z,101407.78
2023-05-17T13:04:50.858Z,101405.53
2023-05-17T13:07:24.294Z,101403.66
2023-05-17T13:09:53.184Z,101408.59
2023-05-17T13:12:24.775Z,101407.28
2023-05-17T13:14:54.690Z,101412.00
2023-05-17T13:17:27.951Z,101407.84
2023-05-17T13:19:58.077Z,101403.50
2023-05-17T13:22:27.278Z,101400.53
2023-05-17T13:24:56.344Z,101411.91
2023-05-17T13:27:26.140Z,101404.22
2023-05-17T13:29:54.719Z,101394.69
2023-05-17T13:32:23.437Z,101392.53
2023-05-17T13:34:51.725Z,101400.97
2023-05-17T13:37:21.111Z,101388.19
2023-05-17T13:39:49.521Z,101389.44
2023-05-17T13:42:18.078Z,101390.56
2023-05-17T13:44:47.896Z,101391.56
2023-05-17T13:47:18.975Z,101381.38
2023-05-17T13:49:47.515Z,101381.00
2023-05-17T13:52:15.835Z,101379.19
2023-05-17T13:54:44.653Z,101367.53
2023-05-17T13:57:13.335Z,101365.97
2023-05-17T13:59:43.562Z,101364.41
2023-05-17T14:02:15.252Z,101351.72
2023-05-17T14:04:43.865Z,101356.81
2023-05-17T14:07:12.086Z,101351.72
2023-05-17T14:09:41.105Z,101355.13
2023-05-17T14:12:09.781Z,101356.16
2023-05-17T14:14:38.024Z,101351.38
2023-05-17T14:17:06.406Z,101353.03
2023-05-17T14:19:36.307Z,101365.19
2023-05-17T14:22:04.946Z,101359.00
2023-05-17T14:24:34.521Z,101362.75
2023-05-17T14:27:05.079Z,101358.31
2023-05-17T14:29:33.973Z,101353.88
2023-05-17T14:32:02.967Z,101348.44
2023-05-17T14:34:33.921Z,101350.75
2023-05-17T14:37:04.314Z,101357.53
2023-05-17T14:39:32.838Z,101345.75
2023-05-17T14:42:03.892Z,101347.84
2023-05-17T14:44:34.612Z,101348.56
2023-05-17T14:47:03.749Z,101349.84
2023-05-17T14:49:33.906Z,101345.31
2023-05-17T14:52:06.675Z,101344.28
2023-05-17T14:54:35.673Z,101349.41
2023-05-17T14:57:04.967Z,101341.28
2023-05-17T14:59:33.806Z,101345.13
2023-05-17T15:02:02.634Z,101351.06
2023-05-17T15:04:31.404Z,101352.34
2023-05-17T15:07:00.002Z,101353.50
2023-05-17T15:09:30.916Z,101347.47
2023-05-17T15:11:59.619Z,101357.53
2023-05-17T15:14:28.160Z,101351.22
2023-05-17T15:16:57.454Z,101353.63
2023-05-17T15:19:26.513Z,101352.16
2023-05-17T15:21:55.146Z,101340.19
2023-05-17T15:24:23.723Z,101343.94
2023-05-17T15:26:53.393Z,101342.63
2023-05-17T15:29:21.643Z,101348.59
2023-05-17T15:31:50.260Z,101333.25
2023-05-17T15:34:18.921Z,101334.22
2023-05-17T15:36:48.691Z,101340.44
2023-05-17T15:39:17.529Z,101342.44
2023-05-17T15:41:46.247Z,101341.25
2023-05-17T15:44:16.015Z,101336.59
2023-05-17T15:46:44.549Z,101337.94
2023-05-17T15:49:13.667Z,101345.13
2023-05-17T15:51:42.251Z,101340.44
2023-05-17T15:54:10.784Z,101343.09
2023-05-17T15:56:39.443Z,101336.03
2023-05-17T15:59:07.989Z,101343.28
2023-05-17T16:01:37.651Z,101341.59
2023-05-17T16:04:06.580Z,101345.25
2023-05-17T16:06:36.820Z,101338.84
2023-05-17T16:09:05.309Z,101337.88
2023-05-17T16:11:33.897Z,101340.25
2023-05-17T16:14:02.816Z,101345.53
2023-05-17T16:16:31.413Z,101340.72
2023-05-17T16:19:01.555Z,101345.19
2023-05-17T16:21:31.293Z,101340.31
2023-05-17T16:23:59.538Z,101340.19
2023-05-17T16:26:28.222Z,101343.78
2023-05-17T16:28:58.611Z,101342.59
2023-05-17T16:31:26.956Z,101346.84
2023-05-17T16:33:55.377Z,101353.84
2023-05-17T16:36:25.195Z,101349.25
2023-05-17T16:38:53.763Z,101346.81
2023-05-17T16:41:22.444Z,101357.69
2023-05-17T16:43:51.032Z,101360.94
2023-05-17T16:46:21.976Z,101357.41
2023-05-17T16:48:50.708Z,101356.78
2023-05-17T16:51:19.306Z,101353.56
2023-05-17T16:53:49.127Z,101341.66
2023-05-17T16:56:17.754Z,101349.53
2023-05-17T16:58:45.972Z,101357.53
2023-05-17T17:01:14.549Z,101356.91
2023-05-17T17:03:43.428Z,101353.50
2023-05-17T17:06:12.187Z,101363.59
2023-05-17T17:08:41.750Z,101360.75
2023-05-17T17:11:11.535Z,101365.03
2023-05-17T17:13:40.383Z,101359.66
2023-05-17T17:16:09.006Z,101361.13
2023-05-17T17:18:37.741Z,101353.81
2023-05-17T17:21:07.862Z,101350.59
2023-05-17T17:23:36.712Z,101359.25
2023-05-17T17:26:05.375Z,101363.97
2023-05-17T17:28:35.076Z,101359.94
2023-05-17T17:31:03.322Z,101361.19
2023-05-17T17:33:31.625Z,101360.25
2023-05-17T17:36:00.320Z,101361.63
2023-05-17T17:38:28.914Z,101366.00
2023-05-17T17:40:57.481Z,101371.63
2023-05-17T17:43:25.719Z,101370.72
2023-05-17T17:45:55.306Z,101374.03
2023-05-17T17:48:24.018Z,101373.78
2023-05-17T17:50:52.572Z,101381.53
2023-05-17T17:53:21.955Z,101386.03
2023-05-17T17:55:50.663Z,101386.19
2023-05-17T17:58:19.314Z,101389.56
2023-05-17T18:00:48.318Z,101388.19
2023-05-17T18:03:18.085Z,101393.69
2023-05-17T18:05:46.701Z,101387.72
2023-05-17T18:08:15.242Z,101394.09
2023-05-17T18:10:43.828Z,101395.03
2023-05-17T18:13:12.384Z,101390.50
2023-05-17T18:15:40.839Z,101398.38
2023-05-17T18:18:09.169Z,101400.81
2023-05-17T18:20:38.897Z,101415.44
2023-05-17T18:23:07.442Z,101411.69
2023-05-17T18:25:36.750Z,101406.09
2023-05-17T18:28:08.000Z,101415.66
2023-05-17T18:30:37.467Z,101409.31
2023-05-17T18:33:07.012Z,101417.00
2023-05-17T18:35:35.728Z,101407.03
2023-05-17T18:38:05.381Z,101407.53
2023-05-17T18:40:34.056Z,101413.34
2023-05-17T18:43:02.688Z,101411.13
2023-05-17T18:45:31.864Z,101408.91
2023-05-17T18:48:00.583Z,101406.63
2023-05-17T18:50:29.467Z,101407.84
2023-05-17T18:52:59.829Z,101404.72
2023-05-17T18:55:29.674Z,101406.91
2023-05-17T18:57:58.236Z,101408.22
2023-05-17T19:00:26.931Z,101410.38
2023-05-17T19:02:56.009Z,101419.53
2023-05-17T19:05:24.678Z,101419.88
2023-05-17T19:07:53.006Z,101416.75
2023-05-17T19:10:22.176Z,101416.09
2023-05-17T19:12:51.765Z,101421.75
2023-05-17T19:15:21.089Z,101425.53
2023-05-17T19:17:49.715Z,101429.31
2023-05-17T19:20:18.406Z,101429.63
2023-05-17T19:22:46.711Z,101434.34
2023-05-17T19:25:16.526Z,101437.19
2023-05-17T19:27:45.979Z,101440.13
2023-05-17T19:30:17.336Z,101450.03
2023-05-17T19:32:45.680Z,101445.91
2023-05-17T19:35:13.910Z,101456.75
2023-05-17T19:37:42.528Z,101456.94
2023-05-17T19:40:12.452Z,101456.25
2023-05-17T19:42:41.096Z,101461.84
2023-05-17T19:45:11.780Z,101462.97
2023-05-17T19:47:42.395Z,101471.06
2023-05-17T19:50:12.319Z,101469.53
2023-05-17T19:52:41.095Z,101476.00
2023-05-17T19:55:09.805Z,101471.81
2023-05-17T19:57:38.520Z,101477.31
2023-05-17T20:00:09.201Z,101478.41
2023-05-17T20:02:38.099Z,101477.75
2023-05-17T20:05:09.042Z,101487.59
2023-05-17T20:07:37.969Z,101479.03
2023-05-17T20:10:07.101Z,101490.63
2023-05-17T20:12:36.125Z,101488.16
2023-05-17T20:15:06.210Z,101490.94
2023-05-17T20:17:34.979Z,101483.19
2023-05-17T20:20:04.282Z,101491.28
2023-05-17T20:22:36.130Z,101493.16
2023-05-17T20:25:05.001Z,101493.31
2023-05-17T20:27:33.645Z,101486.44
2023-05-17T20:30:03.476Z,101493.63
2023-05-17T20:32:32.098Z,101492.91
2023-05-17T20:35:00.920Z,101488.63
2023-05-17T20:37:29.170Z,101488.84
2023-05-17T20:40:00.002Z,101492.44
2023-05-17T20:42:28.998Z,101497.84
2023-05-17T20:44:57.714Z,101491.81
2023-05-17T20:47:26.772Z,101497.16
2023-05-17T20:49:56.137Z,101497.31
2023-05-17T20:52:38.179Z,101496.59
2023-05-17T20:55:10.765Z,101505.50
2023-05-17T20:57:39.483Z,101496.03
2023-05-17T21:00:11.586Z,101506.66
2023-05-17T21:02:40.172Z,101498.06
2023-05-17T21:05:10.907Z,101505.22
2023-05-17T21:07:40.228Z,101509.72
2023-05-17T21:10:11.123Z,101513.28
2023-05-17T21:12:41.979Z,101516.94
2023-05-17T21:15:17.137Z,101514.41
2023-05-17T21:17:46.231Z,101515.41
2023-05-17T21:20:15.237Z,101518.16
2023-05-17T21:22:44.356Z,101527.91
2023-05-17T21:25:14.092Z,101521.84
2023-05-17T21:27:42.769Z,101512.28
2023-05-17T21:30:11.962Z,101524.59
2023-05-17T21:32:40.681Z,101516.81
2023-05-17T21:35:09.542Z,101516.03
2023-05-17T21:37:40.046Z,101516.09
2023-05-17T21:40:10.096Z,101510.91
2023-05-17T21:42:39.962Z,101515.38
2023-05-17T21:45:09.446Z,101517.19
2023-05-17T21:47:38.266Z,101524.34
2023-05-17T21:50:07.901Z,101517.38
2023-05-17T21:52:36.514Z,101517.47
2023-05-17T21:55:05.950Z,101519.31
2023-05-17T21:57:36.606Z,101519.41
2023-05-17T22:00:12.610Z,101521.19
2023-05-17T22:02:41.220Z,101520.47
2023-05-17T22:05:10.664Z,101529.31
2023-05-17T22:07:39.723Z,101524.16
2023-05-17T22:10:10.315Z,101522.47
2023-05-17T22:12:39.079Z,101515.56
2023-05-17T22:15:11.355Z,101512.97
2023-05-17T22:17:51.252Z,101520.09
2023-05-17T22:20:23.528Z,101521.06
2023-05-17T22:22:52.422Z,101521.09
2023-05-17T22:25:21.418Z,101520.28
2023-05-17T22:27:50.119Z,101527.38
2023-05-17T22:30:20.462Z,101525.69
2023-05-17T22:32:49.172Z,101526.63
2023-05-17T22:35:17.754Z,101528.44
2023-05-17T22:37:46.317Z,101529.34
2023-05-17T22:40:14.863Z,101523.28
2023-05-17T22:42:44.781Z,101535.59
2023-05-17T22:45:14.328Z,101525.13
2023-05-17T22:47:44.085Z,101535.69
2023-05-17T22:50:15.570Z,101539.25
2023-05-17T22:52:46.098Z,101534.91
2023-05-17T22:55:14.703Z,101535.84
2023-05-17T22:57:43.442Z,101530.66
2023-05-17T23:00:13.514Z,101527.19
2023-05-17T23:02:43.496Z,101536.84
2023-05-17T23:05:13.003Z,101529.00
2023-05-17T23:07:43.210Z,101537.81
2023-05-17T23:10:12.854Z,101532.59
2023-05-17T23:12:41.400Z,101532.59
2023-05-17T23:15:11.468Z,101534.41
2023-05-17T23:17:41.124Z,101537.94
2023-05-17T23:20:12.670Z,101540.59
2023-05-17T23:22:41.398Z,101534.53
2023-05-17T23:25:10.685Z,101544.16
2023-05-17T23:27:38.960Z,101541.56
2023-05-17T23:30:08.942Z,101538.97
2023-05-17T23:32:37.652Z,101536.34
2023-05-17T23:35:06.960Z,101534.66
2023-05-17T23:37:37.835Z,101541.69
2023-05-17T23:40:09.398Z,101522.47
2023-05-17T23:42:38.175Z,101527.75
2023-05-17T23:45:09.200Z,101526.03
2023-05-17T23:47:40.771Z,101529.59
2023-05-17T23:50:10.786Z,101530.50
2023-05-17T23:52:40.394Z,101528.75
2023-05-17T23:55:09.798Z,101541.09
2023-05-17T23:57:39.150Z,101534.97
